sensor_id;sensor_type;location;lat;lon;timestamp;temperature;humidity
480;DHT22;226;48.606;9.096;2022-09-17T15:19:23;14.30;25.40
480;DHT22;226;48.606;9.096;2022-09-17T15:21:56;13.90;24.50
480;DHT22;226;48.606;9.096;2022-09-17T15:24:35;13.90;28.10
480;DHT22;226;48.606;9.096;2022-09-17T15:27:11;13.90;28.70
480;DHT22;226;48.606;9.096;2022-09-17T15:29:43;13.90;30.60
480;DHT22;226;48.606;9.096;2022-09-17T15:32:12;13.40;26.10
480;DHT22;226;48.606;9.096;2022-09-17T15:34:41;14.10;24.90
480;DHT22;226;48.606;9.096;2022-09-17T15:37:17;13.70;24.80
480;DHT22;226;48.606;9.096;2022-09-17T15:39:50;13.50;31.30
480;DHT22;226;48.606;9.096;2022-09-17T15:42:25;13.30;24.00
480;DHT22;226;48.606;9.096;2022-09-17T15:45:06;13.30;24.00
480;DHT22;226;48.606;9.096;2022-09-17T15:47:46;13.30;25.90
480;DHT22;226;48.606;9.096;2022-09-17T15:50:18;13.30;25.90
480;DHT22;226;48.606;9.096;2022-09-17T15:52:47;13.30;26.90
480;DHT22;226;48.606;9.096;2022-09-17T15:58:20;13.50;24.10
480;DHT22;226;48.606;9.096;2022-09-17T16:04:07;13.80;24.20
480;DHT22;226;48.606;9.096;2022-09-17T16:06:36;13.70;22.80
480;DHT22;226;48.606;9.096;2022-09-17T16:12:19;13.40;20.10
480;DHT22;226;48.606;9.096;2022-09-17T16:14:53;13.20;22.40
480;DHT22;226;48.606;9.096;2022-09-17T16:17:30;13.00;23.70
480;DHT22;226;48.606;9.096;2022-09-17T16:20:07;13.00;22.70
480;DHT22;226;48.606;9.096;2022-09-17T16:22:35;13.00;24.80
480;DHT22;226;48.606;9.096;2022-09-17T16:25:04;13.10;26.60
480;DHT22;226;48.606;9.096;2022-09-17T16:27:41;13.20;23.10
480;DHT22;226;48.606;9.096;2022-09-17T16:30:15;13.30;25.50
480;DHT22;226;48.606;9.096;2022-09-17T16:32:44;13.30;26.00
480;DHT22;226;48.606;9.096;2022-09-17T16:35:13;13.40;24.90
480;DHT22;226;48.606;9.096;2022-09-17T16:37:46;13.50;22.60
480;DHT22;226;48.606;9.096;2022-09-17T16:40:14;14.90;23.90
480;DHT22;226;48.606;9.096;2022-09-17T16:42:43;13.60;24.60
480;DHT22;226;48.606;9.096;2022-09-17T16:45:13;13.60;23.90
480;DHT22;226;48.606;9.096;2022-09-17T16:47:42;13.50;22.10
480;DHT22;226;48.606;9.096;2022-09-17T16:50:12;13.50;23.30
480;DHT22;226;48.606;9.096;2022-09-17T16:55:10;13.30;23.20
480;DHT22;226;48.606;9.096;2022-09-17T16:57:39;13.10;25.60
480;DHT22;226;48.606;9.096;2022-09-17T17:00:09;13.00;26.10
480;DHT22;226;48.606;9.096;2022-09-17T17:02:40;13.00;26.30
480;DHT22;226;48.606;9.096;2022-09-17T17:05:09;12.90;25.80
480;DHT22;226;48.606;9.096;2022-09-17T17:07:37;12.90;26.90
480;DHT22;226;48.606;9.096;2022-09-17T17:10:06;12.90;26.70
480;DHT22;226;48.606;9.096;2022-09-17T17:12:36;12.90;28.10
480;DHT22;226;48.606;9.096;2022-09-17T17:15:05;12.90;26.90
480;DHT22;226;48.606;9.096;2022-09-17T17:17:33;12.80;27.30
480;DHT22;226;48.606;9.096;2022-09-17T17:20:04;12.90;29.10
480;DHT22;226;48.606;9.096;2022-09-17T17:22:34;12.90;29.50
480;DHT22;226;48.606;9.096;2022-09-17T17:25:03;12.90;27.20
480;DHT22;226;48.606;9.096;2022-09-17T17:27:31;12.90;27.90
480;DHT22;226;48.606;9.096;2022-09-17T17:29:59;12.80;28.60
480;DHT22;226;48.606;9.096;2022-09-17T17:32:32;12.80;29.70
480;DHT22;226;48.606;9.096;2022-09-17T17:35:01;12.60;28.30
480;DHT22;226;48.606;9.096;2022-09-17T17:39:58;12.30;47.60
480;DHT22;226;48.606;9.096;2022-09-17T17:42:27;12.30;36.40
480;DHT22;226;48.606;9.096;2022-09-17T17:45:01;12.10;36.30
480;DHT22;226;48.606;9.096;2022-09-17T17:49:57;14.30;50.60
480;DHT22;226;48.606;9.096;2022-09-17T17:52:26;12.30;36.10
480;DHT22;226;48.606;9.096;2022-09-17T17:54:55;12.20;40.50
480;DHT22;226;48.606;9.096;2022-09-17T17:57:23;12.10;38.40
480;DHT22;226;48.606;9.096;2022-09-17T17:59:51;12.20;55.90
480;DHT22;226;48.606;9.096;2022-09-17T18:02:19;12.10;44.10
480;DHT22;226;48.606;9.096;2022-09-17T18:04:48;12.10;45.20
480;DHT22;226;48.606;9.096;2022-09-17T18:07:16;12.00;46.10
480;DHT22;226;48.606;9.096;2022-09-17T18:09:44;11.60;54.60
480;DHT22;226;48.606;9.096;2022-09-17T18:12:14;11.70;46.40
480;DHT22;226;48.606;9.096;2022-09-17T18:14:42;11.60;51.10
480;DHT22;226;48.606;9.096;2022-09-17T18:19:38;11.30;55.90
480;DHT22;226;48.606;9.096;2022-09-17T18:22:06;11.30;59.30
480;DHT22;226;48.606;9.096;2022-09-17T18:27:03;11.30;63.30
480;DHT22;226;48.606;9.096;2022-09-17T18:29:33;11.30;64.70
480;DHT22;226;48.606;9.096;2022-09-17T18:32:01;11.30;57.50
480;DHT22;226;48.606;9.096;2022-09-17T18:34:29;11.20;59.30
480;DHT22;226;48.606;9.096;2022-09-17T18:36:58;11.20;61.40
480;DHT22;226;48.606;9.096;2022-09-17T18:39:26;11.10;63.80
480;DHT22;226;48.606;9.096;2022-09-17T18:42:14;11.10;57.50
480;DHT22;226;48.606;9.096;2022-09-17T18:44:43;11.10;57.10
480;DHT22;226;48.606;9.096;2022-09-17T18:47:12;11.00;54.30
480;DHT22;226;48.606;9.096;2022-09-17T18:49:40;11.10;69.90
480;DHT22;226;48.606;9.096;2022-09-17T18:52:08;10.90;56.20
480;DHT22;226;48.606;9.096;2022-09-17T18:54:36;10.90;55.50
480;DHT22;226;48.606;9.096;2022-09-17T18:59:33;10.90;53.90
480;DHT22;226;48.606;9.096;2022-09-17T19:02:02;10.80;51.90
480;DHT22;226;48.606;9.096;2022-09-17T19:04:32;10.70;53.90
480;DHT22;226;48.606;9.096;2022-09-17T19:07:00;10.70;57.20
480;DHT22;226;48.606;9.096;2022-09-17T19:09:28;10.60;58.10
480;DHT22;226;48.606;9.096;2022-09-17T19:11:56;10.60;58.70
480;DHT22;226;48.606;9.096;2022-09-17T19:14:24;10.50;59.80
480;DHT22;226;48.606;9.096;2022-09-17T19:24:18;10.40;58.60
480;DHT22;226;48.606;9.096;2022-09-17T19:26:46;10.50;58.50
480;DHT22;226;48.606;9.096;2022-09-17T19:29:16;10.50;53.10
480;DHT22;226;48.606;9.096;2022-09-17T19:31:44;10.50;59.10
480;DHT22;226;48.606;9.096;2022-09-17T19:34:12;10.50;60.40
480;DHT22;226;48.606;9.096;2022-09-17T19:36:42;10.50;61.20
480;DHT22;226;48.606;9.096;2022-09-17T19:39:10;10.50;67.50
480;DHT22;226;48.606;9.096;2022-09-17T19:41:37;10.10;52.20
480;DHT22;226;48.606;9.096;2022-09-17T19:44:05;9.90;56.10
480;DHT22;226;48.606;9.096;2022-09-17T19:46:35;9.70;61.40
480;DHT22;226;48.606;9.096;2022-09-17T19:49:03;9.60;52.40
480;DHT22;226;48.606;9.096;2022-09-17T19:54:00;9.40;64.80
480;DHT22;226;48.606;9.096;2022-09-17T19:56:29;9.40;66.60
480;DHT22;226;48.606;9.096;2022-09-17T19:58:57;9.10;80.10
480;DHT22;226;48.606;9.096;2022-09-17T20:01:25;9.60;70.80
480;DHT22;226;48.606;9.096;2022-09-17T20:03:53;9.70;72.20
480;DHT22;226;48.606;9.096;2022-09-17T20:06:21;9.50;78.70
480;DHT22;226;48.606;9.096;2022-09-17T20:08:51;9.50;74.20
480;DHT22;226;48.606;9.096;2022-09-17T20:11:22;9.50;67.60
480;DHT22;226;48.606;9.096;2022-09-17T20:13:55;9.50;78.30
480;DHT22;226;48.606;9.096;2022-09-17T20:16:24;9.20;64.00
480;DHT22;226;48.606;9.096;2022-09-17T20:18:53;9.30;64.00
480;DHT22;226;48.606;9.096;2022-09-17T20:21:22;9.30;66.50
480;DHT22;226;48.606;9.096;2022-09-17T20:23:51;9.20;67.10
480;DHT22;226;48.606;9.096;2022-09-17T20:26:20;9.20;68.10
480;DHT22;226;48.606;9.096;2022-09-17T20:28:49;9.00;79.10
480;DHT22;226;48.606;9.096;2022-09-17T20:31:19;9.10;64.70
480;DHT22;226;48.606;9.096;2022-09-17T20:33:50;9.10;64.60
480;DHT22;226;48.606;9.096;2022-09-17T20:36:20;9.00;65.30
480;DHT22;226;48.606;9.096;2022-09-17T20:38:48;9.10;68.80
480;DHT22;226;48.606;9.096;2022-09-17T20:41:38;9.10;69.40
480;DHT22;226;48.606;9.096;2022-09-17T20:46:36;9.00;69.80
480;DHT22;226;48.606;9.096;2022-09-17T20:49:04;9.10;71.90
480;DHT22;226;48.606;9.096;2022-09-17T20:51:32;9.10;71.60
480;DHT22;226;48.606;9.096;2022-09-17T20:54:00;9.10;72.60
480;DHT22;226;48.606;9.096;2022-09-17T20:56:30;9.30;86.30
480;DHT22;226;48.606;9.096;2022-09-17T20:59:02;9.10;72.90
480;DHT22;226;48.606;9.096;2022-09-17T21:01:39;9.10;73.40
480;DHT22;226;48.606;9.096;2022-09-17T21:04:12;9.40;74.80
480;DHT22;226;48.606;9.096;2022-09-17T21:06:42;9.00;83.90
480;DHT22;226;48.606;9.096;2022-09-17T21:09:11;9.10;74.70
480;DHT22;226;48.606;9.096;2022-09-17T21:11:42;9.10;75.50
480;DHT22;226;48.606;9.096;2022-09-17T21:14:12;9.20;76.40
480;DHT22;226;48.606;9.096;2022-09-17T21:16:41;9.20;75.00
480;DHT22;226;48.606;9.096;2022-09-17T21:19:10;9.10;74.60
480;DHT22;226;48.606;9.096;2022-09-17T21:21:38;9.20;74.60
480;DHT22;226;48.606;9.096;2022-09-17T21:24:07;9.20;75.80
480;DHT22;226;48.606;9.096;2022-09-17T21:26:35;9.20;76.20
480;DHT22;226;48.606;9.096;2022-09-17T21:29:03;9.30;76.60
480;DHT22;226;48.606;9.096;2022-09-17T21:31:34;9.30;76.30
480;DHT22;226;48.606;9.096;2022-09-17T21:34:04;9.40;83.70
480;DHT22;226;48.606;9.096;2022-09-17T21:36:34;9.40;75.30
480;DHT22;226;48.606;9.096;2022-09-17T21:39:04;9.30;74.70
480;DHT22;226;48.606;9.096;2022-09-17T21:41:32;9.30;74.30
480;DHT22;226;48.606;9.096;2022-09-17T21:44:07;9.40;74.20
480;DHT22;226;48.606;9.096;2022-09-17T21:46:37;9.50;74.00
480;DHT22;226;48.606;9.096;2022-09-17T21:49:06;9.20;72.40
480;DHT22;226;48.606;9.096;2022-09-17T21:51:35;9.00;82.30
480;DHT22;226;48.606;9.096;2022-09-17T21:54:05;9.20;85.30
480;DHT22;226;48.606;9.096;2022-09-17T21:56:34;9.10;71.80
480;DHT22;226;48.606;9.096;2022-09-17T21:59:03;9.00;72.30
480;DHT22;226;48.606;9.096;2022-09-17T22:01:33;9.00;73.90
480;DHT22;226;48.606;9.096;2022-09-17T22:04:07;9.00;74.10
480;DHT22;226;48.606;9.096;2022-09-17T22:09:05;8.90;74.80
480;DHT22;226;48.606;9.096;2022-09-17T22:11:35;8.90;75.80
480;DHT22;226;48.606;9.096;2022-09-17T22:14:05;8.90;75.30
480;DHT22;226;48.606;9.096;2022-09-17T22:16:37;8.80;75.00
480;DHT22;226;48.606;9.096;2022-09-17T22:19:07;8.80;74.60
480;DHT22;226;48.606;9.096;2022-09-17T22:21:37;8.70;75.00
480;DHT22;226;48.606;9.096;2022-09-17T22:24:08;9.00;76.20
480;DHT22;226;48.606;9.096;2022-09-17T22:26:38;8.70;76.00
480;DHT22;226;48.606;9.096;2022-09-17T22:29:09;8.70;75.90
480;DHT22;226;48.606;9.096;2022-09-17T22:31:39;8.70;76.10
480;DHT22;226;48.606;9.096;2022-09-17T22:34:10;8.70;76.10
480;DHT22;226;48.606;9.096;2022-09-17T22:36:38;8.40;75.60
480;DHT22;226;48.606;9.096;2022-09-17T22:39:07;8.80;75.70
480;DHT22;226;48.606;9.096;2022-09-17T22:41:36;8.70;74.10
480;DHT22;226;48.606;9.096;2022-09-17T22:44:13;8.70;74.40
480;DHT22;226;48.606;9.096;2022-09-17T22:46:41;8.60;74.60
480;DHT22;226;48.606;9.096;2022-09-17T22:49:11;8.60;74.60
480;DHT22;226;48.606;9.096;2022-09-17T22:51:40;8.50;74.80
480;DHT22;226;48.606;9.096;2022-09-17T22:54:10;8.60;75.90
480;DHT22;226;48.606;9.096;2022-09-17T22:56:39;8.60;75.10
480;DHT22;226;48.606;9.096;2022-09-17T22:59:07;8.50;73.50
480;DHT22;226;48.606;9.096;2022-09-17T23:01:35;9.60;74.90
480;DHT22;226;48.606;9.096;2022-09-17T23:04:04;8.80;75.80
480;DHT22;226;48.606;9.096;2022-09-17T23:06:35;8.50;75.10
480;DHT22;226;48.606;9.096;2022-09-17T23:09:04;8.40;74.80
480;DHT22;226;48.606;9.096;2022-09-17T23:11:34;8.50;75.60
480;DHT22;226;48.606;9.096;2022-09-17T23:14:03;8.50;75.80
480;DHT22;226;48.606;9.096;2022-09-17T23:16:33;8.90;77.30
480;DHT22;226;48.606;9.096;2022-09-17T23:19:01;8.50;77.70
480;DHT22;226;48.606;9.096;2022-09-17T23:21:29;8.50;76.80
480;DHT22;226;48.606;9.096;2022-09-17T23:23:59;8.50;77.70
480;DHT22;226;48.606;9.096;2022-09-17T23:26:27;8.60;79.60
480;DHT22;226;48.606;9.096;2022-09-17T23:28:55;8.60;79.70
480;DHT22;226;48.606;9.096;2022-09-17T23:31:30;8.70;78.40
480;DHT22;226;48.606;9.096;2022-09-17T23:34:00;8.70;78.50
480;DHT22;226;48.606;9.096;2022-09-17T23:36:30;8.80;78.50
480;DHT22;226;48.606;9.096;2022-09-17T23:39:00;8.80;76.60
480;DHT22;226;48.606;9.096;2022-09-17T23:41:30;8.80;75.60
480;DHT22;226;48.606;9.096;2022-09-17T23:44:01;8.80;75.70
480;DHT22;226;48.606;9.096;2022-09-17T23:46:31;8.90;75.40
480;DHT22;226;48.606;9.096;2022-09-17T23:48:59;8.70;75.80
480;DHT22;226;48.606;9.096;2022-09-17T23:51:28;8.90;75.60
480;DHT22;226;48.606;9.096;2022-09-17T23:56:27;8.90;74.90
480;DHT22;226;48.606;9.096;2022-09-17T23:58:57;8.90;75.30
